sensor_id;sensor_type;location;lat;lon;timestamp;temperature;humidity
20524;DHT22;10420;48.542;12.270;2022-08-19T00:02:30;19.40;99.90
20524;DHT22;10420;48.542;12.270;2022-08-19T00:07:31;19.50;99.90
20524;DHT22;10420;48.542;12.270;2022-08-19T00:12:32;19.60;99.90
20524;DHT22;10420;48.542;12.270;2022-08-19T00:17:32;19.70;99.90
20524;DHT22;10420;48.542;12.270;2022-08-19T00:22:33;19.70;99.90
20524;DHT22;10420;48.542;12.270;2022-08-19T00:27:34;19.70;99.90
20524;DHT22;10420;48.542;12.270;2022-08-19T00:32:34;19.70;99.90
20524;DHT22;10420;48.542;12.270;2022-08-19T00:37:35;19.80;99.90
20524;DHT22;10420;48.542;12.270;2022-08-19T00:42:36;19.80;99.90
20524;DHT22;10420;48.542;12.270;2022-08-19T00:47:38;19.80;99.90
20524;DHT22;10420;48.542;12.270;2022-08-19T00:52:42;19.90;99.90
20524;DHT22;10420;48.542;12.270;2022-08-19T00:57:48;20.00;99.90
20524;DHT22;10420;48.542;12.270;2022-08-19T01:02:52;20.00;99.90
20524;DHT22;10420;48.542;12.270;2022-08-19T01:07:54;19.90;99.90
20524;DHT22;10420;48.542;12.270;2022-08-19T01:12:58;19.90;99.90
20524;DHT22;10420;48.542;12.270;2022-08-19T01:18:02;19.90;99.90
20524;DHT22;10420;48.542;12.270;2022-08-19T01:23:04;19.90;99.90
20524;DHT22;10420;48.542;12.270;2022-08-19T01:28:05;19.90;99.90
20524;DHT22;10420;48.542;12.270;2022-08-19T01:33:06;19.90;99.90
20524;DHT22;10420;48.542;12.270;2022-08-19T01:38:09;19.90;99.90
20524;DHT22;10420;48.542;12.270;2022-08-19T01:43:11;19.90;99.90
20524;DHT22;10420;48.542;12.270;2022-08-19T01:48:12;19.80;99.90
20524;DHT22;10420;48.542;12.270;2022-08-19T01:53:13;19.90;99.90
20524;DHT22;10420;48.542;12.270;2022-08-19T01:58:19;19.90;99.90
20524;DHT22;10420;48.542;12.270;2022-08-19T02:03:21;19.90;99.90
20524;DHT22;10420;48.542;12.270;2022-08-19T02:08:23;19.90;99.90
20524;DHT22;10420;48.542;12.270;2022-08-19T02:13:25;19.90;99.90
20524;DHT22;10420;48.542;12.270;2022-08-19T02:18:26;19.80;99.90
20524;DHT22;10420;48.542;12.270;2022-08-19T02:23:27;19.80;99.90
20524;DHT22;10420;48.542;12.270;2022-08-19T02:28:27;19.80;99.90
20524;DHT22;10420;48.542;12.270;2022-08-19T02:33:28;19.80;99.90
20524;DHT22;10420;48.542;12.270;2022-08-19T02:38:29;19.70;99.90
20524;DHT22;10420;48.542;12.270;2022-08-19T02:43:31;19.80;99.90
20524;DHT22;10420;48.542;12.270;2022-08-19T02:48:32;19.80;99.90
20524;DHT22;10420;48.542;12.270;2022-08-19T02:53:33;19.60;99.90
20524;DHT22;10420;48.542;12.270;2022-08-19T02:58:33;19.60;99.90
20524;DHT22;10420;48.542;12.270;2022-08-19T03:03:34;19.50;99.90
20524;DHT22;10420;48.542;12.270;2022-08-19T03:08:35;19.60;99.90
20524;DHT22;10420;48.542;12.270;2022-08-19T03:13:36;19.60;99.90
20524;DHT22;10420;48.542;12.270;2022-08-19T03:18:36;19.40;99.90
20524;DHT22;10420;48.542;12.270;2022-08-19T03:23:37;19.40;99.90
20524;DHT22;10420;48.542;12.270;2022-08-19T03:28:37;19.50;99.90
20524;DHT22;10420;48.542;12.270;2022-08-19T03:33:38;19.60;99.90
20524;DHT22;10420;48.542;12.270;2022-08-19T03:38:47;19.60;99.90
20524;DHT22;10420;48.542;12.270;2022-08-19T03:43:48;19.60;99.90
20524;DHT22;10420;48.542;12.270;2022-08-19T03:48:52;19.60;99.90
20524;DHT22;10420;48.542;12.270;2022-08-19T03:53:55;19.60;99.90
20524;DHT22;10420;48.542;12.270;2022-08-19T03:58:57;19.60;99.90
20524;DHT22;10420;48.542;12.270;2022-08-19T04:04:00;19.60;99.90
20524;DHT22;10420;48.542;12.270;2022-08-19T04:09:03;19.60;99.90
20524;DHT22;10420;48.542;12.270;2022-08-19T04:14:04;19.80;99.90
20524;DHT22;10420;48.542;12.270;2022-08-19T04:19:05;19.70;99.90
20524;DHT22;10420;48.542;12.270;2022-08-19T04:24:06;19.60;99.90
20524;DHT22;10420;48.542;12.270;2022-08-19T04:29:18;19.70;99.90
20524;DHT22;10420;48.542;12.270;2022-08-19T04:34:24;19.60;99.90
20524;DHT22;10420;48.542;12.270;2022-08-19T04:39:29;19.70;99.90
20524;DHT22;10420;48.542;12.270;2022-08-19T04:44:48;19.60;99.90
20524;DHT22;10420;48.542;12.270;2022-08-19T04:49:51;19.50;99.90
20524;DHT22;10420;48.542;12.270;2022-08-19T04:54:52;19.50;99.90
20524;DHT22;10420;48.542;12.270;2022-08-19T04:59:56;19.50;99.90
20524;DHT22;10420;48.542;12.270;2022-08-19T05:04:58;19.50;99.90
20524;DHT22;10420;48.542;12.270;2022-08-19T05:10:02;19.40;99.90
20524;DHT22;10420;48.542;12.270;2022-08-19T05:15:04;19.40;99.90
20524;DHT22;10420;48.542;12.270;2022-08-19T05:20:07;19.40;99.90
20524;DHT22;10420;48.542;12.270;2022-08-19T05:25:26;19.30;99.90
20524;DHT22;10420;48.542;12.270;2022-08-19T05:30:27;19.60;99.90
20524;DHT22;10420;48.542;12.270;2022-08-19T05:35:28;19.50;99.90
20524;DHT22;10420;48.542;12.270;2022-08-19T05:40:28;19.50;99.90
20524;DHT22;10420;48.542;12.270;2022-08-19T05:45:29;19.50;99.90
20524;DHT22;10420;48.542;12.270;2022-08-19T05:50:30;19.50;99.90
20524;DHT22;10420;48.542;12.270;2022-08-19T05:55:31;19.50;99.90
20524;DHT22;10420;48.542;12.270;2022-08-19T06:00:32;19.50;99.90
20524;DHT22;10420;48.542;12.270;2022-08-19T06:05:32;19.50;99.90
20524;DHT22;10420;48.542;12.270;2022-08-19T06:10:33;19.50;99.90
20524;DHT22;10420;48.542;12.270;2022-08-19T06:15:34;19.60;99.90
20524;DHT22;10420;48.542;12.270;2022-08-19T06:20:34;19.70;99.90
20524;DHT22;10420;48.542;12.270;2022-08-19T06:25:35;19.50;99.90
20524;DHT22;10420;48.542;12.270;2022-08-19T06:30:36;19.20;99.90
20524;DHT22;10420;48.542;12.270;2022-08-19T06:35:40;19.40;99.90
20524;DHT22;10420;48.542;12.270;2022-08-19T06:40:41;19.60;99.90
20524;DHT22;10420;48.542;12.270;2022-08-19T06:45:42;19.50;99.90
20524;DHT22;10420;48.542;12.270;2022-08-19T06:50:42;19.60;99.90
20524;DHT22;10420;48.542;12.270;2022-08-19T06:55:43;19.60;99.90
20524;DHT22;10420;48.542;12.270;2022-08-19T07:00:43;19.60;99.90
20524;DHT22;10420;48.542;12.270;2022-08-19T07:05:44;19.60;99.90
20524;DHT22;10420;48.542;12.270;2022-08-19T07:10:45;19.50;99.90
20524;DHT22;10420;48.542;12.270;2022-08-19T07:15:47;19.70;99.90
20524;DHT22;10420;48.542;12.270;2022-08-19T07:20:49;19.60;99.90
20524;DHT22;10420;48.542;12.270;2022-08-19T07:25:50;19.60;99.90
20524;DHT22;10420;48.542;12.270;2022-08-19T07:30:51;19.70;99.90
20524;DHT22;10420;48.542;12.270;2022-08-19T07:35:52;19.90;99.90
20524;DHT22;10420;48.542;12.270;2022-08-19T07:40:53;20.10;99.90
20524;DHT22;10420;48.542;12.270;2022-08-19T07:45:55;20.40;99.90
20524;DHT22;10420;48.542;12.270;2022-08-19T07:51:02;20.30;99.90
20524;DHT22;10420;48.542;12.270;2022-08-19T07:56:04;20.60;99.90
20524;DHT22;10420;48.542;12.270;2022-08-19T08:01:06;21.10;99.90
20524;DHT22;10420;48.542;12.270;2022-08-19T08:06:08;21.30;99.90
20524;DHT22;10420;48.542;12.270;2022-08-19T08:11:27;21.30;99.90
20524;DHT22;10420;48.542;12.270;2022-08-19T08:16:28;21.20;99.90
20524;DHT22;10420;48.542;12.270;2022-08-19T08:21:33;21.50;99.90
20524;DHT22;10420;48.542;12.270;2022-08-19T08:26:42;21.60;99.90
20524;DHT22;10420;48.542;12.270;2022-08-19T08:31:44;21.40;99.90
20524;DHT22;10420;48.542;12.270;2022-08-19T08:36:46;21.10;99.90
20524;DHT22;10420;48.542;12.270;2022-08-19T08:41:58;21.10;99.90
20524;DHT22;10420;48.542;12.270;2022-08-19T08:47:12;20.90;99.90
20524;DHT22;10420;48.542;12.270;2022-08-19T08:52:22;20.90;99.90
20524;DHT22;10420;48.542;12.270;2022-08-19T09:02:47;20.80;99.90
20524;DHT22;10420;48.542;12.270;2022-08-19T09:18:05;20.30;99.90
20524;DHT22;10420;48.542;12.270;2022-08-19T09:23:08;20.20;99.90
20524;DHT22;10420;48.542;12.270;2022-08-19T09:28:11;20.20;99.90
20524;DHT22;10420;48.542;12.270;2022-08-19T09:33:11;20.10;99.90
20524;DHT22;10420;48.542;12.270;2022-08-19T09:38:12;20.10;99.90
20524;DHT22;10420;48.542;12.270;2022-08-19T09:43:13;20.10;99.90
20524;DHT22;10420;48.542;12.270;2022-08-19T09:48:13;20.20;99.90
20524;DHT22;10420;48.542;12.270;2022-08-19T09:53:14;20.60;99.90
20524;DHT22;10420;48.542;12.270;2022-08-19T09:58:14;20.90;99.90
20524;DHT22;10420;48.542;12.270;2022-08-19T10:03:15;21.00;99.90
20524;DHT22;10420;48.542;12.270;2022-08-19T10:08:24;20.80;99.90
20524;DHT22;10420;48.542;12.270;2022-08-19T10:13:31;20.80;99.90
20524;DHT22;10420;48.542;12.270;2022-08-19T10:18:32;21.30;99.90
20524;DHT22;10420;48.542;12.270;2022-08-19T10:23:38;21.10;99.90
20524;DHT22;10420;48.542;12.270;2022-08-19T10:28:39;20.70;99.90
20524;DHT22;10420;48.542;12.270;2022-08-19T10:33:40;20.70;99.90
20524;DHT22;10420;48.542;12.270;2022-08-19T10:38:41;20.50;99.90
20524;DHT22;10420;48.542;12.270;2022-08-19T10:43:43;20.50;99.90
20524;DHT22;10420;48.542;12.270;2022-08-19T10:48:45;20.60;99.90
20524;DHT22;10420;48.542;12.270;2022-08-19T10:53:46;20.70;99.90
20524;DHT22;10420;48.542;12.270;2022-08-19T10:58:47;21.00;99.90
20524;DHT22;10420;48.542;12.270;2022-08-19T11:03:49;21.00;99.90
20524;DHT22;10420;48.542;12.270;2022-08-19T11:08:50;20.90;99.90
20524;DHT22;10420;48.542;12.270;2022-08-19T11:13:51;20.80;99.90
20524;DHT22;10420;48.542;12.270;2022-08-19T11:18:56;20.50;99.90
20524;DHT22;10420;48.542;12.270;2022-08-19T11:24:01;20.50;99.90
20524;DHT22;10420;48.542;12.270;2022-08-19T11:29:04;21.10;99.90
20524;DHT22;10420;48.542;12.270;2022-08-19T11:34:09;21.90;99.90
20524;DHT22;10420;48.542;12.270;2022-08-19T11:39:13;21.80;99.90
20524;DHT22;10420;48.542;12.270;2022-08-19T11:44:14;22.10;99.90
20524;DHT22;10420;48.542;12.270;2022-08-19T11:49:16;22.20;99.90
20524;DHT22;10420;48.542;12.270;2022-08-19T11:54:19;22.20;99.90
20524;DHT22;10420;48.542;12.270;2022-08-19T11:59:19;21.70;99.90
20524;DHT22;10420;48.542;12.270;2022-08-19T12:04:22;21.80;99.90
20524;DHT22;10420;48.542;12.270;2022-08-19T12:09:22;21.70;99.90
20524;DHT22;10420;48.542;12.270;2022-08-19T12:14:23;22.00;99.90
20524;DHT22;10420;48.542;12.270;2022-08-19T12:19:24;22.20;99.90
20524;DHT22;10420;48.542;12.270;2022-08-19T12:24:25;22.20;99.90
20524;DHT22;10420;48.542;12.270;2022-08-19T12:29:25;22.00;99.90
20524;DHT22;10420;48.542;12.270;2022-08-19T12:34:30;21.80;99.90
20524;DHT22;10420;48.542;12.270;2022-08-19T12:39:36;21.80;99.90
20524;DHT22;10420;48.542;12.270;2022-08-19T12:44:39;21.70;99.90
20524;DHT22;10420;48.542;12.270;2022-08-19T12:49:41;21.80;99.90
20524;DHT22;10420;48.542;12.270;2022-08-19T12:54:42;22.00;99.90
20524;DHT22;10420;48.542;12.270;2022-08-19T12:59:43;22.30;99.90
20524;DHT22;10420;48.542;12.270;2022-08-19T13:04:44;22.20;99.90
20524;DHT22;10420;48.542;12.270;2022-08-19T13:09:45;22.10;99.90
20524;DHT22;10420;48.542;12.270;2022-08-19T13:14:45;22.20;99.90
20524;DHT22;10420;48.542;12.270;2022-08-19T13:19:50;22.50;99.90
20524;DHT22;10420;48.542;12.270;2022-08-19T13:24:51;22.90;99.90
20524;DHT22;10420;48.542;12.270;2022-08-19T13:29:51;23.20;99.90
20524;DHT22;10420;48.542;12.270;2022-08-19T13:35:11;22.90;99.90
20524;DHT22;10420;48.542;12.270;2022-08-19T13:40:19;22.70;99.90
20524;DHT22;10420;48.542;12.270;2022-08-19T13:45:24;22.70;99.90
20524;DHT22;10420;48.542;12.270;2022-08-19T13:50:27;22.60;99.90
20524;DHT22;10420;48.542;12.270;2022-08-19T13:55:28;22.70;99.90
20524;DHT22;10420;48.542;12.270;2022-08-19T14:00:35;22.80;99.90
20524;DHT22;10420;48.542;12.270;2022-08-19T14:05:36;22.80;99.90
20524;DHT22;10420;48.542;12.270;2022-08-19T14:10:37;22.90;99.90
20524;DHT22;10420;48.542;12.270;2022-08-19T14:15:38;22.60;99.90
20524;DHT22;10420;48.542;12.270;2022-08-19T14:20:39;22.80;99.90
20524;DHT22;10420;48.542;12.270;2022-08-19T14:25:40;22.60;99.90
20524;DHT22;10420;48.542;12.270;2022-08-19T14:30:41;22.50;99.90
20524;DHT22;10420;48.542;12.270;2022-08-19T14:35:41;22.30;99.90
20524;DHT22;10420;48.542;12.270;2022-08-19T14:40:45;22.20;99.90
20524;DHT22;10420;48.542;12.270;2022-08-19T14:45:46;22.10;99.90
20524;DHT22;10420;48.542;12.270;2022-08-19T14:50:46;21.80;99.90
20524;DHT22;10420;48.542;12.270;2022-08-19T14:55:47;21.80;99.90
20524;DHT22;10420;48.542;12.270;2022-08-19T15:00:47;21.40;99.90
20524;DHT22;10420;48.542;12.270;2022-08-19T15:05:48;21.70;99.90
20524;DHT22;10420;48.542;12.270;2022-08-19T15:10:49;21.90;99.90
20524;DHT22;10420;48.542;12.270;2022-08-19T15:15:49;21.90;99.90
20524;DHT22;10420;48.542;12.270;2022-08-19T15:20:51;22.20;99.90
20524;DHT22;10420;48.542;12.270;2022-08-19T15:25:52;22.30;99.90
20524;DHT22;10420;48.542;12.270;2022-08-19T15:30:55;22.10;99.90
20524;DHT22;10420;48.542;12.270;2022-08-19T15:35:55;22.20;99.90
20524;DHT22;10420;48.542;12.270;2022-08-19T15:40:57;22.10;99.90
20524;DHT22;10420;48.542;12.270;2022-08-19T15:46:20;22.30;99.90
20524;DHT22;10420;48.542;12.270;2022-08-19T15:51:22;22.60;99.90
20524;DHT22;10420;48.542;12.270;2022-08-19T15:56:23;22.40;99.90
20524;DHT22;10420;48.542;12.270;2022-08-19T16:01:24;22.20;99.90
20524;DHT22;10420;48.542;12.270;2022-08-19T16:06:57;22.10;99.90
20524;DHT22;10420;48.542;12.270;2022-08-19T16:12:00;22.10;99.90
20524;DHT22;10420;48.542;12.270;2022-08-19T16:17:02;22.10;99.90
20524;DHT22;10420;48.542;12.270;2022-08-19T16:22:03;22.00;99.90
20524;DHT22;10420;48.542;12.270;2022-08-19T16:27:05;21.90;99.90
20524;DHT22;10420;48.542;12.270;2022-08-19T16:32:09;21.90;99.90
20524;DHT22;10420;48.542;12.270;2022-08-19T16:37:10;21.90;99.90
20524;DHT22;10420;48.542;12.270;2022-08-19T16:42:11;21.70;99.90
20524;DHT22;10420;48.542;12.270;2022-08-19T16:47:13;21.70;99.90
20524;DHT22;10420;48.542;12.270;2022-08-19T16:52:17;21.50;99.90
20524;DHT22;10420;48.542;12.270;2022-08-19T16:57:18;21.40;99.90
20524;DHT22;10420;48.542;12.270;2022-08-19T17:02:20;21.30;99.90
20524;DHT22;10420;48.542;12.270;2022-08-19T17:07:22;21.20;99.90
20524;DHT22;10420;48.542;12.270;2022-08-19T17:12:24;21.20;99.90
20524;DHT22;10420;48.542;12.270;2022-08-19T17:17:25;21.00;99.90
20524;DHT22;10420;48.542;12.270;2022-08-19T17:22:26;21.00;99.90
20524;DHT22;10420;48.542;12.270;2022-08-19T17:27:27;20.80;99.90
20524;DHT22;10420;48.542;12.270;2022-08-19T17:32:29;20.80;99.90
20524;DHT22;10420;48.542;12.270;2022-08-19T17:37:34;20.80;99.90
20524;DHT22;10420;48.542;12.270;2022-08-19T17:42:35;20.70;99.90
20524;DHT22;10420;48.542;12.270;2022-08-19T17:47:36;20.60;99.90
20524;DHT22;10420;48.542;12.270;2022-08-19T17:52:37;20.60;99.90
20524;DHT22;10420;48.542;12.270;2022-08-19T17:57:39;20.60;99.90
20524;DHT22;10420;48.542;12.270;2022-08-19T18:02:55;20.40;99.90
20524;DHT22;10420;48.542;12.270;2022-08-19T18:07:56;20.20;99.90
20524;DHT22;10420;48.542;12.270;2022-08-19T18:12:58;20.20;99.90
20524;DHT22;10420;48.542;12.270;2022-08-19T18:17:59;20.10;99.90
20524;DHT22;10420;48.542;12.270;2022-08-19T18:22:59;20.00;99.90
20524;DHT22;10420;48.542;12.270;2022-08-19T18:28:00;20.10;99.90
20524;DHT22;10420;48.542;12.270;2022-08-19T18:33:03;19.90;99.90
20524;DHT22;10420;48.542;12.270;2022-08-19T18:38:05;19.80;99.90
20524;DHT22;10420;48.542;12.270;2022-08-19T18:43:26;19.70;99.90
20524;DHT22;10420;48.542;12.270;2022-08-19T18:48:26;19.60;99.90
20524;DHT22;10420;48.542;12.270;2022-08-19T18:53:47;19.70;99.90
20524;DHT22;10420;48.542;12.270;2022-08-19T18:58:48;19.60;99.90
20524;DHT22;10420;48.542;12.270;2022-08-19T19:03:51;19.60;99.90
20524;DHT22;10420;48.542;12.270;2022-08-19T19:08:53;19.60;99.90
20524;DHT22;10420;48.542;12.270;2022-08-19T19:13:54;19.50;99.90
20524;DHT22;10420;48.542;12.270;2022-08-19T19:18:55;19.40;99.90
20524;DHT22;10420;48.542;12.270;2022-08-19T19:23:56;19.40;99.90
20524;DHT22;10420;48.542;12.270;2022-08-19T19:28:56;19.20;99.90
20524;DHT22;10420;48.542;12.270;2022-08-19T19:33:58;19.10;99.90
20524;DHT22;10420;48.542;12.270;2022-08-19T19:38:59;18.90;99.90
20524;DHT22;10420;48.542;12.270;2022-08-19T19:44:00;19.00;99.90
20524;DHT22;10420;48.542;12.270;2022-08-19T19:49:01;19.10;99.90
20524;DHT22;10420;48.542;12.270;2022-08-19T19:54:01;19.00;99.90
20524;DHT22;10420;48.542;12.270;2022-08-19T19:59:02;19.00;99.90
20524;DHT22;10420;48.542;12.270;2022-08-19T20:04:03;19.10;99.90
20524;DHT22;10420;48.542;12.270;2022-08-19T20:09:04;19.10;99.90
20524;DHT22;10420;48.542;12.270;2022-08-19T20:14:16;19.10;99.90
20524;DHT22;10420;48.542;12.270;2022-08-19T20:19:19;19.00;99.90
20524;DHT22;10420;48.542;12.270;2022-08-19T20:24:25;18.90;99.90
20524;DHT22;10420;48.542;12.270;2022-08-19T20:29:26;19.00;99.90
20524;DHT22;10420;48.542;12.270;2022-08-19T20:34:27;19.00;99.90
20524;DHT22;10420;48.542;12.270;2022-08-19T20:39:28;19.00;99.90
20524;DHT22;10420;48.542;12.270;2022-08-19T20:44:28;18.90;99.90
20524;DHT22;10420;48.542;12.270;2022-08-19T20:49:29;19.00;99.90
20524;DHT22;10420;48.542;12.270;2022-08-19T20:54:30;18.90;99.90
20524;DHT22;10420;48.542;12.270;2022-08-19T20:59:30;18.90;99.90
20524;DHT22;10420;48.542;12.270;2022-08-19T21:04:31;18.70;99.90
20524;DHT22;10420;48.542;12.270;2022-08-19T21:09:32;18.70;99.90
20524;DHT22;10420;48.542;12.270;2022-08-19T21:14:38;18.50;99.90
20524;DHT22;10420;48.542;12.270;2022-08-19T21:19:38;18.30;99.90
20524;DHT22;10420;48.542;12.270;2022-08-19T21:24:39;18.40;99.90
20524;DHT22;10420;48.542;12.270;2022-08-19T21:29:42;18.30;99.90
20524;DHT22;10420;48.542;12.270;2022-08-19T21:34:43;18.30;99.90
20524;DHT22;10420;48.542;12.270;2022-08-19T21:39:43;18.30;99.90
20524;DHT22;10420;48.542;12.270;2022-08-19T21:44:44;18.20;99.90
20524;DHT22;10420;48.542;12.270;2022-08-19T21:49:45;18.20;99.90
20524;DHT22;10420;48.542;12.270;2022-08-19T21:54:45;18.10;99.90
20524;DHT22;10420;48.542;12.270;2022-08-19T21:59:46;18.20;99.90
20524;DHT22;10420;48.542;12.270;2022-08-19T22:04:48;18.00;99.90
20524;DHT22;10420;48.542;12.270;2022-08-19T22:09:50;18.00;99.90
20524;DHT22;10420;48.542;12.270;2022-08-19T22:14:53;18.10;99.90
20524;DHT22;10420;48.542;12.270;2022-08-19T22:19:54;18.00;99.90
20524;DHT22;10420;48.542;12.270;2022-08-19T22:25:02;17.90;99.90
20524;DHT22;10420;48.542;12.270;2022-08-19T22:30:07;17.90;99.90
20524;DHT22;10420;48.542;12.270;2022-08-19T22:35:08;17.80;99.90
20524;DHT22;10420;48.542;12.270;2022-08-19T22:40:11;17.70;99.90
20524;DHT22;10420;48.542;12.270;2022-08-19T22:45:15;17.80;99.90
20524;DHT22;10420;48.542;12.270;2022-08-19T22:50:16;17.60;99.90
20524;DHT22;10420;48.542;12.270;2022-08-19T22:55:16;17.50;99.90
20524;DHT22;10420;48.542;12.270;2022-08-19T23:00:17;17.60;99.90
20524;DHT22;10420;48.542;12.270;2022-08-19T23:05:20;17.60;99.90
20524;DHT22;10420;48.542;12.270;2022-08-19T23:10:21;17.50;99.90
20524;DHT22;10420;48.542;12.270;2022-08-19T23:15:30;17.50;99.90
20524;DHT22;10420;48.542;12.270;2022-08-19T23:20:33;17.60;99.90
20524;DHT22;10420;48.542;12.270;2022-08-19T23:25:35;17.40;99.90
20524;DHT22;10420;48.542;12.270;2022-08-19T23:30:41;17.20;99.90
20524;DHT22;10420;48.542;12.270;2022-08-19T23:35:43;17.20;99.90
20524;DHT22;10420;48.542;12.270;2022-08-19T23:40:44;17.10;99.90
20524;DHT22;10420;48.542;12.270;2022-08-19T23:45:45;17.10;99.90
20524;DHT22;10420;48.542;12.270;2022-08-19T23:50:46;17.00;99.90
20524;DHT22;10420;48.542;12.270;2022-08-19T23:55:47;17.20;99.90
